sensor_id;sensor_type;location;lat;lon;timestamp;P1;durP1;ratioP1;P2;durP2;ratioP2
31310;SDS011;17937;51.508;7.534;2022-11-11T00:01:01;6.35;;;2.58;;
31310;SDS011;17937;51.508;7.534;2022-11-11T00:03:39;8.45;;;3.72;;
31310;SDS011;17937;51.508;7.534;2022-11-11T00:06:06;6.50;;;2.50;;
31310;SDS011;17937;51.508;7.534;2022-11-11T00:08:34;7.07;;;2.40;;
31310;SDS011;17937;51.508;7.534;2022-11-11T00:11:10;7.97;;;2.50;;
31310;SDS011;17937;51.508;7.534;2022-11-11T00:13:37;7.95;;;2.63;;
31310;SDS011;17937;51.508;7.534;2022-11-11T00:16:07;6.43;;;2.65;;
31310;SDS011;17937;51.508;7.534;2022-11-11T00:18:38;10.98;;;2.63;;
31310;SDS011;17937;51.508;7.534;2022-11-11T00:21:22;7.93;;;2.80;;
31310;SDS011;17937;51.508;7.534;2022-11-11T00:24:26;8.52;;;2.80;;
31310;SDS011;17937;51.508;7.534;2022-11-11T00:27:12;9.13;;;2.60;;
31310;SDS011;17937;51.508;7.534;2022-11-11T00:29:38;6.65;;;2.60;;
31310;SDS011;17937;51.508;7.534;2022-11-11T00:32:05;10.70;;;3.00;;
31310;SDS011;17937;51.508;7.534;2022-11-11T00:34:50;7.00;;;3.13;;
31310;SDS011;17937;51.508;7.534;2022-11-11T00:37:35;9.68;;;2.80;;
31310;SDS011;17937;51.508;7.534;2022-11-11T00:40:01;6.55;;;2.70;;
31310;SDS011;17937;51.508;7.534;2022-11-11T00:42:27;7.85;;;2.70;;
31310;SDS011;17937;51.508;7.534;2022-11-11T00:44:53;10.18;;;2.53;;
31310;SDS011;17937;51.508;7.534;2022-11-11T00:47:19;10.80;;;3.30;;
31310;SDS011;17937;51.508;7.534;2022-11-11T00:50:04;6.95;;;2.38;;
31310;SDS011;17937;51.508;7.534;2022-11-11T00:52:59;5.22;;;2.70;;
31310;SDS011;17937;51.508;7.534;2022-11-11T00:55:24;7.30;;;2.97;;
31310;SDS011;17937;51.508;7.534;2022-11-11T00:57:50;6.30;;;2.45;;
31310;SDS011;17937;51.508;7.534;2022-11-11T01:00:16;9.00;;;2.38;;
31310;SDS011;17937;51.508;7.534;2022-11-11T01:02:41;4.10;;;2.08;;
31310;SDS011;17937;51.508;7.534;2022-11-11T01:05:07;6.70;;;2.30;;
31310;SDS011;17937;51.508;7.534;2022-11-11T01:07:32;5.95;;;2.13;;
31310;SDS011;17937;51.508;7.534;2022-11-11T01:09:58;5.88;;;2.45;;
31310;SDS011;17937;51.508;7.534;2022-11-11T01:12:24;8.73;;;2.45;;
31310;SDS011;17937;51.508;7.534;2022-11-11T01:14:49;5.60;;;2.45;;
31310;SDS011;17937;51.508;7.534;2022-11-11T01:17:15;5.55;;;2.40;;
31310;SDS011;17937;51.508;7.534;2022-11-11T01:19:40;7.82;;;2.55;;
31310;SDS011;17937;51.508;7.534;2022-11-11T01:22:06;8.15;;;2.33;;
31310;SDS011;17937;51.508;7.534;2022-11-11T01:24:31;9.73;;;2.65;;
31310;SDS011;17937;51.508;7.534;2022-11-11T01:26:57;6.55;;;2.33;;
31310;SDS011;17937;51.508;7.534;2022-11-11T01:29:22;8.80;;;2.20;;
31310;SDS011;17937;51.508;7.534;2022-11-11T01:31:48;6.22;;;2.22;;
31310;SDS011;17937;51.508;7.534;2022-11-11T01:34:14;5.95;;;2.50;;
31310;SDS011;17937;51.508;7.534;2022-11-11T01:36:39;9.07;;;2.83;;
31310;SDS011;17937;51.508;7.534;2022-11-11T01:39:05;8.13;;;2.55;;
31310;SDS011;17937;51.508;7.534;2022-11-11T01:41:32;5.47;;;2.25;;
31310;SDS011;17937;51.508;7.534;2022-11-11T01:57:24;6.60;;;2.42;;
31310;SDS011;17937;51.508;7.534;2022-11-11T01:59:59;6.70;;;2.28;;
31310;SDS011;17937;51.508;7.534;2022-11-11T02:05:14;7.07;;;2.47;;
31310;SDS011;17937;51.508;7.534;2022-11-11T02:08:00;5.78;;;2.13;;
31310;SDS011;17937;51.508;7.534;2022-11-11T02:10:30;8.05;;;2.38;;
31310;SDS011;17937;51.508;7.534;2022-11-11T02:12:57;6.00;;;2.28;;
31310;SDS011;17937;51.508;7.534;2022-11-11T02:15:42;5.97;;;2.15;;
31310;SDS011;17937;51.508;7.534;2022-11-11T02:18:08;5.72;;;2.30;;
31310;SDS011;17937;51.508;7.534;2022-11-11T02:20:36;6.78;;;2.20;;
31310;SDS011;17937;51.508;7.534;2022-11-11T02:23:05;6.57;;;2.65;;
31310;SDS011;17937;51.508;7.534;2022-11-11T02:25:34;5.20;;;2.22;;
31310;SDS011;17937;51.508;7.534;2022-11-11T02:28:04;8.30;;;2.63;;
31310;SDS011;17937;51.508;7.534;2022-11-11T02:30:31;6.00;;;2.47;;
31310;SDS011;17937;51.508;7.534;2022-11-11T02:32:56;7.65;;;2.50;;
31310;SDS011;17937;51.508;7.534;2022-11-11T02:37:56;6.10;;;2.08;;
31310;SDS011;17937;51.508;7.534;2022-11-11T02:42:53;7.07;;;2.00;;
31310;SDS011;17937;51.508;7.534;2022-11-11T02:45:19;8.52;;;2.40;;
31310;SDS011;17937;51.508;7.534;2022-11-11T02:47:45;10.18;;;2.60;;
31310;SDS011;17937;51.508;7.534;2022-11-11T02:50:10;4.68;;;2.00;;
31310;SDS011;17937;51.508;7.534;2022-11-11T02:52:36;9.50;;;2.60;;
31310;SDS011;17937;51.508;7.534;2022-11-11T02:55:01;4.50;;;2.03;;
31310;SDS011;17937;51.508;7.534;2022-11-11T02:57:27;4.72;;;2.08;;
31310;SDS011;17937;51.508;7.534;2022-11-11T02:59:53;9.82;;;2.60;;
31310;SDS011;17937;51.508;7.534;2022-11-11T03:02:21;10.55;;;2.75;;
31310;SDS011;17937;51.508;7.534;2022-11-11T03:04:51;5.70;;;2.40;;
31310;SDS011;17937;51.508;7.534;2022-11-11T03:07:20;7.70;;;2.70;;
31310;SDS011;17937;51.508;7.534;2022-11-11T03:09:46;7.05;;;2.20;;
31310;SDS011;17937;51.508;7.534;2022-11-11T03:12:12;6.57;;;2.40;;
31310;SDS011;17937;51.508;7.534;2022-11-11T03:14:37;6.85;;;2.50;;
31310;SDS011;17937;51.508;7.534;2022-11-11T03:17:04;9.95;;;2.42;;
31310;SDS011;17937;51.508;7.534;2022-11-11T03:19:48;7.20;;;2.45;;
31310;SDS011;17937;51.508;7.534;2022-11-11T03:22:13;8.38;;;2.33;;
31310;SDS011;17937;51.508;7.534;2022-11-11T03:24:39;7.60;;;2.08;;
31310;SDS011;17937;51.508;7.534;2022-11-11T03:27:23;7.10;;;2.63;;
31310;SDS011;17937;51.508;7.534;2022-11-11T03:29:48;5.22;;;2.13;;
31310;SDS011;17937;51.508;7.534;2022-11-11T03:32:14;6.97;;;2.28;;
31310;SDS011;17937;51.508;7.534;2022-11-11T03:34:39;7.07;;;2.10;;
31310;SDS011;17937;51.508;7.534;2022-11-11T03:37:06;3.85;;;2.00;;
31310;SDS011;17937;51.508;7.534;2022-11-11T03:39:52;6.85;;;1.83;;
31310;SDS011;17937;51.508;7.534;2022-11-11T03:42:17;6.40;;;2.17;;
31310;SDS011;17937;51.508;7.534;2022-11-11T03:44:43;7.40;;;2.13;;
31310;SDS011;17937;51.508;7.534;2022-11-11T03:47:08;7.88;;;2.00;;
31310;SDS011;17937;51.508;7.534;2022-11-11T03:49:34;5.35;;;1.92;;
31310;SDS011;17937;51.508;7.534;2022-11-11T03:51:59;7.75;;;2.60;;
31310;SDS011;17937;51.508;7.534;2022-11-11T03:54:25;4.88;;;1.90;;
31310;SDS011;17937;51.508;7.534;2022-11-11T03:56:50;7.28;;;2.30;;
31310;SDS011;17937;51.508;7.534;2022-11-11T03:59:16;4.18;;;2.03;;
31310;SDS011;17937;51.508;7.534;2022-11-11T04:01:41;6.13;;;2.10;;
31310;SDS011;17937;51.508;7.534;2022-11-11T04:04:26;6.07;;;2.60;;
31310;SDS011;17937;51.508;7.534;2022-11-11T04:07:10;7.57;;;2.05;;
31310;SDS011;17937;51.508;7.534;2022-11-11T04:09:54;7.95;;;2.90;;
31310;SDS011;17937;51.508;7.534;2022-11-11T04:12:38;6.70;;;2.53;;
31310;SDS011;17937;51.508;7.534;2022-11-11T04:15:24;7.40;;;2.05;;
31310;SDS011;17937;51.508;7.534;2022-11-11T04:18:08;6.93;;;1.95;;
31310;SDS011;17937;51.508;7.534;2022-11-11T04:20:33;7.68;;;2.30;;
31310;SDS011;17937;51.508;7.534;2022-11-11T04:23:17;4.82;;;2.00;;
31310;SDS011;17937;51.508;7.534;2022-11-11T04:25:43;4.93;;;2.10;;
31310;SDS011;17937;51.508;7.534;2022-11-11T04:28:14;7.25;;;2.47;;
31310;SDS011;17937;51.508;7.534;2022-11-11T04:30:59;6.60;;;2.15;;
31310;SDS011;17937;51.508;7.534;2022-11-11T04:33:24;5.45;;;2.22;;
31310;SDS011;17937;51.508;7.534;2022-11-11T04:35:50;10.40;;;2.88;;
31310;SDS011;17937;51.508;7.534;2022-11-11T04:38:16;5.22;;;2.10;;
31310;SDS011;17937;51.508;7.534;2022-11-11T04:41:00;5.05;;;2.33;;
31310;SDS011;17937;51.508;7.534;2022-11-11T04:43:31;7.90;;;2.83;;
31310;SDS011;17937;51.508;7.534;2022-11-11T04:46:17;4.82;;;2.30;;
31310;SDS011;17937;51.508;7.534;2022-11-11T04:48:42;6.20;;;2.50;;
31310;SDS011;17937;51.508;7.534;2022-11-11T04:51:08;7.32;;;2.78;;
31310;SDS011;17937;51.508;7.534;2022-11-11T04:53:33;3.90;;;2.10;;
31310;SDS011;17937;51.508;7.534;2022-11-11T04:55:59;5.57;;;1.90;;
31310;SDS011;17937;51.508;7.534;2022-11-11T04:58:43;9.40;;;2.80;;
31310;SDS011;17937;51.508;7.534;2022-11-11T05:01:10;10.63;;;2.38;;
31310;SDS011;17937;51.508;7.534;2022-11-11T05:03:56;7.75;;;2.13;;
31310;SDS011;17937;51.508;7.534;2022-11-11T05:06:22;7.05;;;2.00;;
31310;SDS011;17937;51.508;7.534;2022-11-11T05:09:06;5.88;;;2.45;;
31310;SDS011;17937;51.508;7.534;2022-11-11T05:11:32;5.07;;;2.10;;
31310;SDS011;17937;51.508;7.534;2022-11-11T05:14:00;7.38;;;2.15;;
31310;SDS011;17937;51.508;7.534;2022-11-11T05:16:47;7.35;;;2.00;;
31310;SDS011;17937;51.508;7.534;2022-11-11T05:19:34;3.47;;;1.95;;
31310;SDS011;17937;51.508;7.534;2022-11-11T05:22:23;7.13;;;2.72;;
31310;SDS011;17937;51.508;7.534;2022-11-11T05:24:51;4.90;;;2.13;;
31310;SDS011;17937;51.508;7.534;2022-11-11T05:27:36;5.80;;;2.08;;
31310;SDS011;17937;51.508;7.534;2022-11-11T05:30:03;3.33;;;1.58;;
31310;SDS011;17937;51.508;7.534;2022-11-11T05:32:30;6.90;;;1.85;;
31310;SDS011;17937;51.508;7.534;2022-11-11T05:34:55;6.13;;;2.08;;
31310;SDS011;17937;51.508;7.534;2022-11-11T05:37:21;6.63;;;2.08;;
31310;SDS011;17937;51.508;7.534;2022-11-11T05:39:47;7.03;;;2.20;;
31310;SDS011;17937;51.508;7.534;2022-11-11T05:42:12;5.22;;;1.80;;
31310;SDS011;17937;51.508;7.534;2022-11-11T05:44:38;6.28;;;2.13;;
31310;SDS011;17937;51.508;7.534;2022-11-11T05:47:03;7.93;;;2.13;;
31310;SDS011;17937;51.508;7.534;2022-11-11T05:49:29;6.10;;;1.88;;
31310;SDS011;17937;51.508;7.534;2022-11-11T05:51:55;8.13;;;2.30;;
31310;SDS011;17937;51.508;7.534;2022-11-11T05:54:21;6.28;;;1.88;;
31310;SDS011;17937;51.508;7.534;2022-11-11T05:56:46;3.42;;;1.58;;
31310;SDS011;17937;51.508;7.534;2022-11-11T05:59:12;5.22;;;1.95;;
31310;SDS011;17937;51.508;7.534;2022-11-11T06:01:38;7.88;;;2.13;;
31310;SDS011;17937;51.508;7.534;2022-11-11T06:04:04;8.38;;;2.08;;
31310;SDS011;17937;51.508;7.534;2022-11-11T06:06:30;7.97;;;2.25;;
31310;SDS011;17937;51.508;7.534;2022-11-11T06:08:57;6.13;;;1.90;;
31310;SDS011;17937;51.508;7.534;2022-11-11T06:11:23;7.18;;;1.77;;
31310;SDS011;17937;51.508;7.534;2022-11-11T06:13:49;5.68;;;2.05;;
31310;SDS011;17937;51.508;7.534;2022-11-11T06:16:15;3.63;;;2.40;;
31310;SDS011;17937;51.508;7.534;2022-11-11T06:18:40;3.88;;;1.77;;
31310;SDS011;17937;51.508;7.534;2022-11-11T06:21:06;6.78;;;2.45;;
31310;SDS011;17937;51.508;7.534;2022-11-11T06:23:32;5.80;;;2.20;;
31310;SDS011;17937;51.508;7.534;2022-11-11T06:25:58;5.57;;;2.03;;
31310;SDS011;17937;51.508;7.534;2022-11-11T06:28:40;6.40;;;2.00;;
31310;SDS011;17937;51.508;7.534;2022-11-11T06:31:10;5.47;;;2.05;;
31310;SDS011;17937;51.508;7.534;2022-11-11T06:33:41;5.00;;;2.47;;
31310;SDS011;17937;51.508;7.534;2022-11-11T06:36:07;3.70;;;2.30;;
31310;SDS011;17937;51.508;7.534;2022-11-11T06:38:35;7.68;;;2.97;;
31310;SDS011;17937;51.508;7.534;2022-11-11T06:41:00;11.32;;;3.20;;
31310;SDS011;17937;51.508;7.534;2022-11-11T06:43:26;11.43;;;2.92;;
31310;SDS011;17937;51.508;7.534;2022-11-11T06:45:53;7.90;;;2.88;;
31310;SDS011;17937;51.508;7.534;2022-11-11T06:48:19;5.25;;;3.03;;
31310;SDS011;17937;51.508;7.534;2022-11-11T06:50:46;6.93;;;2.83;;
31310;SDS011;17937;51.508;7.534;2022-11-11T06:53:13;9.18;;;2.30;;
31310;SDS011;17937;51.508;7.534;2022-11-11T06:55:40;3.63;;;2.35;;
31310;SDS011;17937;51.508;7.534;2022-11-11T06:58:06;7.75;;;2.50;;
31310;SDS011;17937;51.508;7.534;2022-11-11T07:00:36;5.32;;;2.45;;
31310;SDS011;17937;51.508;7.534;2022-11-11T07:03:03;6.35;;;2.58;;
31310;SDS011;17937;51.508;7.534;2022-11-11T07:05:29;8.48;;;3.00;;
31310;SDS011;17937;51.508;7.534;2022-11-11T07:07:56;8.32;;;2.80;;
31310;SDS011;17937;51.508;7.534;2022-11-11T07:10:25;7.60;;;3.15;;
31310;SDS011;17937;51.508;7.534;2022-11-11T07:12:50;7.68;;;3.10;;
31310;SDS011;17937;51.508;7.534;2022-11-11T07:15:16;9.38;;;3.97;;
31310;SDS011;17937;51.508;7.534;2022-11-11T07:17:41;5.65;;;3.00;;
31310;SDS011;17937;51.508;7.534;2022-11-11T07:20:07;7.47;;;3.13;;
31310;SDS011;17937;51.508;7.534;2022-11-11T07:22:36;8.43;;;3.05;;
31310;SDS011;17937;51.508;7.534;2022-11-11T07:25:02;12.05;;;3.10;;
31310;SDS011;17937;51.508;7.534;2022-11-11T07:27:28;8.20;;;3.72;;
31310;SDS011;17937;51.508;7.534;2022-11-11T07:29:54;11.70;;;3.00;;
31310;SDS011;17937;51.508;7.534;2022-11-11T07:32:19;8.48;;;3.10;;
31310;SDS011;17937;51.508;7.534;2022-11-11T07:34:45;10.77;;;3.05;;
31310;SDS011;17937;51.508;7.534;2022-11-11T07:37:11;10.82;;;3.30;;
31310;SDS011;17937;51.508;7.534;2022-11-11T07:39:36;13.23;;;3.15;;
31310;SDS011;17937;51.508;7.534;2022-11-11T07:42:02;6.65;;;2.90;;
31310;SDS011;17937;51.508;7.534;2022-11-11T07:44:27;7.80;;;2.88;;
31310;SDS011;17937;51.508;7.534;2022-11-11T07:46:53;10.57;;;2.92;;
31310;SDS011;17937;51.508;7.534;2022-11-11T07:49:19;4.88;;;2.53;;
31310;SDS011;17937;51.508;7.534;2022-11-11T07:51:44;6.68;;;2.83;;
31310;SDS011;17937;51.508;7.534;2022-11-11T07:54:10;9.07;;;2.40;;
31310;SDS011;17937;51.508;7.534;2022-11-11T07:56:36;7.93;;;3.30;;
31310;SDS011;17937;51.508;7.534;2022-11-11T07:59:01;9.95;;;3.08;;
31310;SDS011;17937;51.508;7.534;2022-11-11T08:01:27;7.28;;;2.85;;
31310;SDS011;17937;51.508;7.534;2022-11-11T08:03:52;5.10;;;2.63;;
31310;SDS011;17937;51.508;7.534;2022-11-11T08:06:18;9.93;;;2.88;;
31310;SDS011;17937;51.508;7.534;2022-11-11T08:08:45;9.63;;;3.30;;
31310;SDS011;17937;51.508;7.534;2022-11-11T08:11:11;8.30;;;3.33;;
31310;SDS011;17937;51.508;7.534;2022-11-11T08:13:37;6.47;;;3.03;;
31310;SDS011;17937;51.508;7.534;2022-11-11T08:16:06;6.35;;;2.97;;
31310;SDS011;17937;51.508;7.534;2022-11-11T08:18:33;6.70;;;2.47;;
31310;SDS011;17937;51.508;7.534;2022-11-11T08:20:59;7.57;;;2.90;;
31310;SDS011;17937;51.508;7.534;2022-11-11T08:23:25;9.43;;;2.75;;
31310;SDS011;17937;51.508;7.534;2022-11-11T08:25:57;7.22;;;2.85;;
31310;SDS011;17937;51.508;7.534;2022-11-11T08:28:23;5.68;;;3.05;;
31310;SDS011;17937;51.508;7.534;2022-11-11T08:30:49;6.75;;;2.80;;
31310;SDS011;17937;51.508;7.534;2022-11-11T08:33:14;7.57;;;2.80;;
31310;SDS011;17937;51.508;7.534;2022-11-11T08:35:40;5.75;;;2.45;;
31310;SDS011;17937;51.508;7.534;2022-11-11T08:38:06;6.22;;;2.33;;
31310;SDS011;17937;51.508;7.534;2022-11-11T08:40:31;7.38;;;2.42;;
31310;SDS011;17937;51.508;7.534;2022-11-11T08:42:57;9.68;;;2.92;;
31310;SDS011;17937;51.508;7.534;2022-11-11T08:45:23;6.72;;;2.60;;
31310;SDS011;17937;51.508;7.534;2022-11-11T08:47:49;5.05;;;2.42;;
31310;SDS011;17937;51.508;7.534;2022-11-11T08:50:15;3.60;;;2.08;;
31310;SDS011;17937;51.508;7.534;2022-11-11T08:52:50;6.38;;;2.95;;
31310;SDS011;17937;51.508;7.534;2022-11-11T08:55:16;4.07;;;2.50;;
31310;SDS011;17937;51.508;7.534;2022-11-11T08:57:43;4.97;;;2.60;;
31310;SDS011;17937;51.508;7.534;2022-11-11T09:00:09;3.38;;;2.05;;
31310;SDS011;17937;51.508;7.534;2022-11-11T09:02:36;6.65;;;2.10;;
31310;SDS011;17937;51.508;7.534;2022-11-11T09:05:02;7.35;;;2.25;;
31310;SDS011;17937;51.508;7.534;2022-11-11T09:07:29;6.93;;;2.13;;
31310;SDS011;17937;51.508;7.534;2022-11-11T09:09:54;3.40;;;2.08;;
31310;SDS011;17937;51.508;7.534;2022-11-11T09:12:20;5.05;;;2.15;;
31310;SDS011;17937;51.508;7.534;2022-11-11T09:14:45;6.65;;;1.70;;
31310;SDS011;17937;51.508;7.534;2022-11-11T09:17:12;12.52;;;2.38;;
31310;SDS011;17937;51.508;7.534;2022-11-11T09:19:37;3.03;;;1.90;;
31310;SDS011;17937;51.508;7.534;2022-11-11T09:22:03;3.45;;;1.60;;
31310;SDS011;17937;51.508;7.534;2022-11-11T09:24:29;4.40;;;1.95;;
31310;SDS011;17937;51.508;7.534;2022-11-11T09:26:55;4.72;;;1.70;;
31310;SDS011;17937;51.508;7.534;2022-11-11T09:29:20;3.92;;;1.55;;
31310;SDS011;17937;51.508;7.534;2022-11-11T09:31:46;3.88;;;1.80;;
31310;SDS011;17937;51.508;7.534;2022-11-11T09:34:12;4.97;;;2.00;;
31310;SDS011;17937;51.508;7.534;2022-11-11T09:36:38;4.93;;;1.92;;
31310;SDS011;17937;51.508;7.534;2022-11-11T09:39:04;5.13;;;2.10;;
31310;SDS011;17937;51.508;7.534;2022-11-11T09:47:38;4.18;;;1.70;;
31310;SDS011;17937;51.508;7.534;2022-11-11T09:50:12;10.13;;;1.83;;
31310;SDS011;17937;51.508;7.534;2022-11-11T09:52:52;5.53;;;1.58;;
31310;SDS011;17937;51.508;7.534;2022-11-11T09:55:38;3.40;;;1.30;;
31310;SDS011;17937;51.508;7.534;2022-11-11T09:58:21;3.90;;;1.30;;
31310;SDS011;17937;51.508;7.534;2022-11-11T10:01:23;6.88;;;1.30;;
31310;SDS011;17937;51.508;7.534;2022-11-11T10:06:47;6.80;;;1.60;;
31310;SDS011;17937;51.508;7.534;2022-11-11T10:14:37;5.50;;;2.10;;
31310;SDS011;17937;51.508;7.534;2022-11-11T10:22:59;6.28;;;1.70;;
31310;SDS011;17937;51.508;7.534;2022-11-11T10:25:37;4.43;;;1.60;;
31310;SDS011;17937;51.508;7.534;2022-11-11T10:28:18;4.45;;;1.50;;
31310;SDS011;17937;51.508;7.534;2022-11-11T10:30:45;6.07;;;1.30;;
31310;SDS011;17937;51.508;7.534;2022-11-11T10:33:16;7.78;;;1.80;;
31310;SDS011;17937;51.508;7.534;2022-11-11T10:35:50;6.03;;;1.63;;
31310;SDS011;17937;51.508;7.534;2022-11-11T10:38:22;3.28;;;1.20;;
31310;SDS011;17937;51.508;7.534;2022-11-11T10:41:12;6.75;;;1.08;;
31310;SDS011;17937;51.508;7.534;2022-11-11T10:43:46;6.60;;;2.00;;
31310;SDS011;17937;51.508;7.534;2022-11-11T10:48:53;10.48;;;1.83;;
31310;SDS011;17937;51.508;7.534;2022-11-11T10:51:30;5.57;;;1.50;;
31310;SDS011;17937;51.508;7.534;2022-11-11T10:56:36;6.03;;;1.33;;
31310;SDS011;17937;51.508;7.534;2022-11-11T10:59:25;3.58;;;1.50;;
31310;SDS011;17937;51.508;7.534;2022-11-11T11:07:42;3.38;;;1.20;;
31310;SDS011;17937;51.508;7.534;2022-11-11T11:10:14;3.58;;;1.30;;
31310;SDS011;17937;51.508;7.534;2022-11-11T11:13:02;3.80;;;1.13;;
31310;SDS011;17937;51.508;7.534;2022-11-11T11:15:38;4.20;;;1.20;;
31310;SDS011;17937;51.508;7.534;2022-11-11T11:20:32;4.90;;;1.10;;
31310;SDS011;17937;51.508;7.534;2022-11-11T11:22:58;2.33;;;1.13;;
31310;SDS011;17937;51.508;7.534;2022-11-11T11:25:26;3.95;;;1.00;;
31310;SDS011;17937;51.508;7.534;2022-11-11T11:28:08;6.07;;;1.10;;
31310;SDS011;17937;51.508;7.534;2022-11-11T11:30:35;6.32;;;1.45;;
31310;SDS011;17937;51.508;7.534;2022-11-11T11:33:02;2.70;;;1.60;;
31310;SDS011;17937;51.508;7.534;2022-11-11T11:38:06;6.00;;;1.67;;
31310;SDS011;17937;51.508;7.534;2022-11-11T11:41:06;5.93;;;1.30;;
31310;SDS011;17937;51.508;7.534;2022-11-11T11:43:34;4.90;;;1.13;;
31310;SDS011;17937;51.508;7.534;2022-11-11T11:46:03;3.25;;;1.25;;
31310;SDS011;17937;51.508;7.534;2022-11-11T11:51:26;3.50;;;1.40;;
31310;SDS011;17937;51.508;7.534;2022-11-11T11:54:58;5.85;;;1.48;;
31310;SDS011;17937;51.508;7.534;2022-11-11T11:57:02;3.63;;;1.50;;
31310;SDS011;17937;51.508;7.534;2022-11-11T11:59:41;5.45;;;1.70;;
31310;SDS011;17937;51.508;7.534;2022-11-11T12:02:16;5.28;;;1.20;;
31310;SDS011;17937;51.508;7.534;2022-11-11T12:13:17;3.05;;;1.40;;
31310;SDS011;17937;51.508;7.534;2022-11-11T12:15:58;2.53;;;1.30;;
31310;SDS011;17937;51.508;7.534;2022-11-11T12:18:50;5.20;;;1.20;;
31310;SDS011;17937;51.508;7.534;2022-11-11T12:21:36;4.70;;;1.23;;
31310;SDS011;17937;51.508;7.534;2022-11-11T12:24:29;4.72;;;1.65;;
31310;SDS011;17937;51.508;7.534;2022-11-11T12:35:14;3.17;;;1.23;;
31310;SDS011;17937;51.508;7.534;2022-11-11T12:40:32;6.47;;;1.48;;
31310;SDS011;17937;51.508;7.534;2022-11-11T12:43:26;3.80;;;1.02;;
31310;SDS011;17937;51.508;7.534;2022-11-11T12:45:57;3.33;;;1.23;;
31310;SDS011;17937;51.508;7.534;2022-11-11T13:15:28;7.53;;;1.23;;
31310;SDS011;17937;51.508;7.534;2022-11-11T13:17:53;5.20;;;1.10;;
31310;SDS011;17937;51.508;7.534;2022-11-11T13:23:09;3.58;;;1.00;;
31310;SDS011;17937;51.508;7.534;2022-11-11T13:25:36;2.45;;;1.25;;
31310;SDS011;17937;51.508;7.534;2022-11-11T13:28:06;3.70;;;1.48;;
31310;SDS011;17937;51.508;7.534;2022-11-11T13:33:41;3.50;;;1.40;;
31310;SDS011;17937;51.508;7.534;2022-11-11T13:41:11;2.75;;;1.30;;
31310;SDS011;17937;51.508;7.534;2022-11-11T13:43:45;3.75;;;1.40;;
31310;SDS011;17937;51.508;7.534;2022-11-11T13:49:04;2.35;;;1.17;;
31310;SDS011;17937;51.508;7.534;2022-11-11T13:51:36;5.00;;;1.30;;
31310;SDS011;17937;51.508;7.534;2022-11-11T13:54:18;3.70;;;1.23;;
31310;SDS011;17937;51.508;7.534;2022-11-11T13:56:45;2.80;;;1.27;;
31310;SDS011;17937;51.508;7.534;2022-11-11T13:59:20;2.35;;;1.00;;
31310;SDS011;17937;51.508;7.534;2022-11-11T14:02:11;5.00;;;1.40;;
31310;SDS011;17937;51.508;7.534;2022-11-11T14:12:45;1.73;;;0.82;;
31310;SDS011;17937;51.508;7.534;2022-11-11T14:20:43;2.35;;;0.98;;
31310;SDS011;17937;51.508;7.534;2022-11-11T14:25:48;4.35;;;1.15;;
31310;SDS011;17937;51.508;7.534;2022-11-11T14:28:22;4.88;;;1.10;;
31310;SDS011;17937;51.508;7.534;2022-11-11T14:30:48;2.08;;;0.93;;
31310;SDS011;17937;51.508;7.534;2022-11-11T14:39:18;2.90;;;1.17;;
31310;SDS011;17937;51.508;7.534;2022-11-11T14:41:53;4.07;;;0.95;;
31310;SDS011;17937;51.508;7.534;2022-11-11T14:57:44;4.30;;;1.75;;
31310;SDS011;17937;51.508;7.534;2022-11-11T15:00:22;5.28;;;1.98;;
31310;SDS011;17937;51.508;7.534;2022-11-11T15:02:49;5.03;;;1.60;;
31310;SDS011;17937;51.508;7.534;2022-11-11T15:05:25;3.95;;;1.67;;
31310;SDS011;17937;51.508;7.534;2022-11-11T15:11:01;6.53;;;1.80;;
31310;SDS011;17937;51.508;7.534;2022-11-11T15:27:40;4.30;;;1.80;;
31310;SDS011;17937;51.508;7.534;2022-11-11T15:30:14;3.75;;;1.77;;
31310;SDS011;17937;51.508;7.534;2022-11-11T15:32:54;3.63;;;1.90;;
31310;SDS011;17937;51.508;7.534;2022-11-11T15:35:36;4.85;;;2.15;;
31310;SDS011;17937;51.508;7.534;2022-11-11T15:38:10;5.53;;;1.70;;
31310;SDS011;17937;51.508;7.534;2022-11-11T15:43:13;5.00;;;1.75;;
31310;SDS011;17937;51.508;7.534;2022-11-11T15:45:42;3.55;;;1.63;;
31310;SDS011;17937;51.508;7.534;2022-11-11T15:48:42;3.47;;;1.92;;
31310;SDS011;17937;51.508;7.534;2022-11-11T15:56:40;4.97;;;2.00;;
31310;SDS011;17937;51.508;7.534;2022-11-11T15:59:16;3.83;;;1.63;;
31310;SDS011;17937;51.508;7.534;2022-11-11T16:01:43;4.28;;;1.90;;
31310;SDS011;17937;51.508;7.534;2022-11-11T16:04:09;4.20;;;2.15;;
31310;SDS011;17937;51.508;7.534;2022-11-11T16:06:42;3.53;;;1.60;;
31310;SDS011;17937;51.508;7.534;2022-11-11T16:09:09;5.50;;;2.17;;
31310;SDS011;17937;51.508;7.534;2022-11-11T16:11:38;3.75;;;1.73;;
31310;SDS011;17937;51.508;7.534;2022-11-11T16:14:04;4.38;;;1.85;;
31310;SDS011;17937;51.508;7.534;2022-11-11T16:16:34;5.68;;;1.95;;
31310;SDS011;17937;51.508;7.534;2022-11-11T16:24:36;3.17;;;1.77;;
31310;SDS011;17937;51.508;7.534;2022-11-11T16:27:05;5.82;;;1.65;;
31310;SDS011;17937;51.508;7.534;2022-11-11T16:29:33;5.78;;;1.83;;
31310;SDS011;17937;51.508;7.534;2022-11-11T16:32:35;4.88;;;1.85;;
31310;SDS011;17937;51.508;7.534;2022-11-11T16:34:53;4.53;;;1.85;;
31310;SDS011;17937;51.508;7.534;2022-11-11T16:37:19;4.35;;;1.90;;
31310;SDS011;17937;51.508;7.534;2022-11-11T16:39:46;2.95;;;1.95;;
31310;SDS011;17937;51.508;7.534;2022-11-11T16:42:24;4.00;;;1.85;;
31310;SDS011;17937;51.508;7.534;2022-11-11T16:50:00;5.35;;;2.28;;
31310;SDS011;17937;51.508;7.534;2022-11-11T16:57:49;6.35;;;2.58;;
31310;SDS011;17937;51.508;7.534;2022-11-11T17:00:16;6.07;;;2.22;;
31310;SDS011;17937;51.508;7.534;2022-11-11T17:02:44;5.35;;;1.88;;
31310;SDS011;17937;51.508;7.534;2022-11-11T17:05:10;5.70;;;2.08;;
31310;SDS011;17937;51.508;7.534;2022-11-11T17:07:36;8.73;;;2.42;;
31310;SDS011;17937;51.508;7.534;2022-11-11T17:12:32;5.30;;;1.98;;
31310;SDS011;17937;51.508;7.534;2022-11-11T17:14:58;7.43;;;1.95;;
31310;SDS011;17937;51.508;7.534;2022-11-11T17:17:24;3.75;;;1.80;;
31310;SDS011;17937;51.508;7.534;2022-11-11T17:19:50;6.38;;;2.10;;
31310;SDS011;17937;51.508;7.534;2022-11-11T17:22:16;5.75;;;2.22;;
31310;SDS011;17937;51.508;7.534;2022-11-11T17:24:41;6.50;;;2.33;;
31310;SDS011;17937;51.508;7.534;2022-11-11T17:27:07;5.05;;;2.15;;
31310;SDS011;17937;51.508;7.534;2022-11-11T17:29:33;7.88;;;2.33;;
31310;SDS011;17937;51.508;7.534;2022-11-11T17:31:58;7.53;;;2.13;;
31310;SDS011;17937;51.508;7.534;2022-11-11T17:34:24;3.45;;;1.98;;
31310;SDS011;17937;51.508;7.534;2022-11-11T17:36:50;6.80;;;2.53;;
31310;SDS011;17937;51.508;7.534;2022-11-11T17:39:15;7.00;;;2.47;;
31310;SDS011;17937;51.508;7.534;2022-11-11T17:41:41;7.35;;;2.42;;
31310;SDS011;17937;51.508;7.534;2022-11-11T17:44:06;7.13;;;2.22;;
31310;SDS011;17937;51.508;7.534;2022-11-11T17:46:32;8.48;;;2.58;;
31310;SDS011;17937;51.508;7.534;2022-11-11T17:48:58;6.88;;;2.88;;
31310;SDS011;17937;51.508;7.534;2022-11-11T17:51:23;5.47;;;2.05;;
31310;SDS011;17937;51.508;7.534;2022-11-11T17:53:49;3.63;;;2.45;;
31310;SDS011;17937;51.508;7.534;2022-11-11T17:56:16;6.07;;;2.17;;
31310;SDS011;17937;51.508;7.534;2022-11-11T17:58:42;3.78;;;2.13;;
31310;SDS011;17937;51.508;7.534;2022-11-11T18:01:09;8.30;;;3.03;;
31310;SDS011;17937;51.508;7.534;2022-11-11T18:03:38;7.13;;;2.42;;
31310;SDS011;17937;51.508;7.534;2022-11-11T18:06:05;5.38;;;1.70;;
31310;SDS011;17937;51.508;7.534;2022-11-11T18:08:31;7.05;;;2.20;;
31310;SDS011;17937;51.508;7.534;2022-11-11T18:11:00;5.35;;;2.60;;
31310;SDS011;17937;51.508;7.534;2022-11-11T18:13:28;6.90;;;2.03;;
31310;SDS011;17937;51.508;7.534;2022-11-11T18:15:54;10.73;;;3.10;;
31310;SDS011;17937;51.508;7.534;2022-11-11T18:18:23;4.43;;;2.03;;
31310;SDS011;17937;51.508;7.534;2022-11-11T18:20:49;6.55;;;2.50;;
31310;SDS011;17937;51.508;7.534;2022-11-11T18:23:15;6.40;;;2.45;;
31310;SDS011;17937;51.508;7.534;2022-11-11T18:25:40;5.55;;;2.20;;